Time;durP1;ratioP1;P1;durP2;ratioP2;P2;SDS_P1;SDS_P2;PMS_P1;PMS_P2;Temp;Humidity;BMP_temperature;BMP_pressure;BME280_temperature;BME280_humidity;BME280_pressure;Samples;Min_cycle;Max_cycle;Signal;HPM_P1;HPM_P2
2021/05/28 00:04:32;;;;;;;8.45;6.22;;;;;;;9.11;78.69;101015.28;8068964;35;20485;-73
2021/05/28 00:09:35;;;;;;;12.57;6.53;;;;;;;9.11;78.63;101017.13;8070123;35;20195;-73
2021/05/28 00:14:38;;;;;;;12.40;6.55;;;;;;;9.17;78.83;101028.28;8059351;35;21453;-73
2021/05/28 00:19:41;;;;;;;13.93;6.97;;;;;;;9.14;78.92;101036.53;8056659;35;20213;-73
2021/05/28 00:24:44;;;;;;;15.25;7.05;;;;;;;9.09;79.04;101038.63;8056850;35;20466;-73
2021/05/28 00:29:47;;;;;;;9.43;6.40;;;;;;;9.17;78.88;101047.03;8052941;35;21129;-73
2021/05/28 00:34:50;;;;;;;10.60;6.70;;;;;;;9.25;78.70;101051.91;8051781;35;20238;-73
2021/05/28 00:39:53;;;;;;;13.13;7.05;;;;;;;9.24;79.01;101053.75;8049142;35;20444;-73
2021/05/28 00:44:56;;;;;;;9.93;6.10;;;;;;;9.10;78.72;101051.06;8048428;35;20486;-73
2021/05/28 00:49:59;;;;;;;15.82;7.05;;;;;;;8.91;78.95;101058.56;8048178;35;20594;-73
2021/05/28 00:55:03;;;;;;;11.60;6.82;;;;;;;8.86;79.02;101064.22;8047991;35;20451;-73
2021/05/28 01:00:08;;;;;;;11.85;7.20;;;;;;;8.91;78.48;101064.78;8048493;35;20567;-73
2021/05/28 01:05:12;;;;;;;16.48;7.63;;;;;;;8.87;78.61;101065.94;8049646;35;22038;-73
2021/05/28 01:10:15;;;;;;;17.05;7.50;;;;;;;8.90;78.69;101079.16;8053965;35;21058;-73
2021/05/28 01:15:18;;;;;;;15.85;6.85;;;;;;;8.97;78.88;101085.00;8054664;35;20182;-73
2021/05/28 01:20:22;;;;;;;12.05;7.25;;;;;;;8.90;78.82;101083.66;8054222;35;20541;-73
2021/05/28 01:25:27;;;;;;;11.80;6.75;;;;;;;8.71;79.34;101089.28;8053111;35;20260;-73
2021/05/28 01:30:30;;;;;;;16.73;6.70;;;;;;;8.71;79.10;101106.22;8060775;35;20187;-73
2021/05/28 01:35:32;;;;;;;10.80;6.55;;;;;;;8.47;79.41;101110.41;8043819;35;20182;-73
2021/05/28 01:40:36;;;;;;;11.65;6.78;;;;;;;8.69;79.11;101113.47;8066028;35;20427;-73
2021/05/28 01:45:39;;;;;;;13.05;6.35;;;;;;;8.77;79.05;101108.50;8059913;35;20527;-73
2021/05/28 01:50:45;;;;;;;14.85;6.75;;;;;;;8.71;78.77;101106.22;8052244;35;20959;-73
2021/05/28 01:55:49;;;;;;;14.73;6.15;;;;;;;8.55;78.44;101117.00;8027334;35;20186;-72
2021/05/28 02:00:56;;;;;;;12.05;5.78;;;;;;;8.43;78.61;101112.38;8048918;35;21375;-73
2021/05/28 02:05:59;;;;;;;16.63;6.43;;;;;;;8.46;78.68;101111.38;8048925;35;20151;-73
2021/05/28 02:11:03;;;;;;;11.20;6.43;;;;;;;8.51;78.67;101114.63;8052645;35;20170;-73
2021/05/28 02:16:06;;;;;;;15.75;7.30;;;;;;;8.39;78.62;101114.38;8050714;35;21050;-72
2021/05/28 02:21:09;;;;;;;12.32;5.88;;;;;;;8.28;78.91;101115.97;8048084;35;20447;-73
2021/05/28 02:26:13;;;;;;;13.73;6.30;;;;;;;8.24;79.30;101119.78;8023637;35;20468;-73
2021/05/28 02:31:16;;;;;;;14.38;5.97;;;;;;;8.02;79.16;101121.06;8046311;35;20135;-73
2021/05/28 02:36:18;;;;;;;9.32;4.97;;;;;;;7.91;79.41;101128.84;8045220;35;20246;-73
2021/05/28 02:41:22;;;;;;;15.10;5.72;;;;;;;7.84;79.76;101128.31;8049492;35;20491;-72
2021/05/28 02:46:24;;;;;;;11.07;6.03;;;;;;;7.78;79.59;101127.84;8051328;35;21012;-72
2021/05/28 02:51:27;;;;;;;12.18;6.00;;;;;;;7.67;79.82;101139.16;8053829;35;21343;-72
2021/05/28 02:56:30;;;;;;;11.80;5.80;;;;;;;7.54;79.88;101133.63;8048219;35;20603;-72
2021/05/28 03:01:33;;;;;;;11.68;5.22;;;;;;;7.48;80.00;101133.97;8047719;35;20564;-72
2021/05/28 03:06:36;;;;;;;13.07;5.53;;;;;;;7.44;80.04;101135.97;8047471;35;20437;-72
2021/05/28 03:11:39;;;;;;;13.45;5.38;;;;;;;7.40;80.61;101138.88;8047407;35;20255;-72
2021/05/28 03:16:42;;;;;;;12.88;6.57;;;;;;;7.35;80.38;101136.50;8049877;35;20451;-72
2021/05/28 03:27:03;;;;;;;10.73;5.68;;;;;;;7.31;80.30;101152.78;8053796;35;21068;-72
2021/05/28 03:32:06;;;;;;;12.05;5.55;;;;;;;7.26;80.59;101153.88;8047651;35;21171;-72
2021/05/28 03:37:08;;;;;;;8.63;5.07;;;;;;;7.24;80.61;101163.81;8044502;35;20225;-72
2021/05/28 03:42:12;;;;;;;10.65;5.80;;;;;;;7.16;80.40;101160.69;8045155;35;20148;-72
2021/05/28 03:47:17;;;;;;;9.73;5.57;;;;;;;7.01;80.72;101158.81;8042494;35;21095;-72
2021/05/28 03:52:20;;;;;;;13.18;6.18;;;;;;;6.93;81.10;101167.25;8043410;35;20541;-72
2021/05/28 03:57:23;;;;;;;9.73;5.80;;;;;;;6.89;80.62;101165.69;8043143;35;20701;-72
2021/05/28 04:02:30;;;;;;;11.98;5.65;;;;;;;6.88;80.86;101165.78;8017976;35;20665;-72
2021/05/28 04:07:32;;;;;;;10.90;6.30;;;;;;;6.91;81.04;101166.50;8043773;35;20587;-72
2021/05/28 04:12:36;;;;;;;10.63;6.30;;;;;;;6.96;81.01;101161.75;8044788;35;20483;-72
2021/05/28 04:17:39;;;;;;;13.40;6.80;;;;;;;6.98;80.79;101167.88;8046063;35;20459;-72
2021/05/28 04:22:42;;;;;;;13.77;7.40;;;;;;;7.02;81.13;101179.25;8049297;35;20190;-72
2021/05/28 04:27:46;;;;;;;13.73;7.03;;;;;;;7.26;80.98;101177.06;8055675;35;20458;-72
2021/05/28 04:32:49;;;;;;;21.52;9.32;;;;;;;7.35;79.75;101181.03;8054880;35;20512;-72
2021/05/28 04:37:51;;;;;;;21.02;9.85;;;;;;;7.28;79.40;101188.53;8055032;35;20191;-73
2021/05/28 04:42:55;;;;;;;20.88;10.00;;;;;;;7.83;79.55;101185.47;8051698;35;20448;-72
2021/05/28 04:47:58;;;;;;;21.40;11.13;;;;;;;7.93;78.38;101201.88;8050496;35;20473;-72
2021/05/28 04:53:02;;;;;;;27.33;12.70;;;;;;;8.25;78.83;101209.84;8045563;35;21048;-72
2021/05/28 04:58:05;;;;;;;22.10;11.73;;;;;;;8.29;76.45;101222.97;8044542;35;20194;-73
2021/05/28 05:03:08;;;;;;;37.33;13.15;;;;;;;8.17;76.27;101231.69;8043654;35;20537;-74
2021/05/28 05:08:10;;;;;;;22.25;12.35;;;;;;;7.92;76.84;101234.91;8041033;35;20179;-74
2021/05/28 05:13:15;;;;;;;35.88;14.30;;;;;;;7.87;76.63;101251.22;8041277;35;20548;-73
2021/05/28 05:18:18;;;;;;;25.38;14.27;;;;;;;7.79;77.02;101253.47;8042190;35;20455;-74
2021/05/28 05:23:21;;;;;;;24.70;13.18;;;;;;;7.41;77.47;101261.78;8042693;35;20321;-74
2021/05/28 05:28:24;;;;;;;27.33;13.27;;;;;;;7.78;76.32;101261.56;8041131;35;20745;-72
2021/05/28 05:33:27;;;;;;;25.33;14.35;;;;;;;8.05;75.78;101280.56;8043108;35;20469;-72
2021/05/28 05:38:29;;;;;;;21.30;11.85;;;;;;;8.63;75.90;101285.28;8047493;35;20191;-72
2021/05/28 05:43:33;;;;;;;25.48;13.93;;;;;;;8.21;74.05;101288.59;8050174;35;21427;-72
2021/05/28 05:48:35;;;;;;;19.75;12.63;;;;;;;8.31;74.16;101273.72;8048880;35;20154;-73
2021/05/28 05:53:42;;;;;;;20.33;12.55;;;;;;;9.17;75.88;101284.78;8039904;35;20191;-72
2021/05/28 05:58:46;;;;;;;21.98;12.20;;;;;;;9.43;76.10;101289.38;7998886;35;20457;-72
2021/05/28 06:03:48;;;;;;;22.90;11.63;;;;;;;9.54;75.79;101287.84;8006287;35;20171;-72
2021/05/28 06:08:52;;;;;;;22.40;12.13;;;;;;;9.79;72.47;101287.16;8055497;35;20543;-72
2021/05/28 06:13:55;;;;;;;22.75;11.25;;;;;;;9.66;71.81;101279.91;8032757;35;20433;-72
2021/05/28 06:18:57;;;;;;;17.50;10.52;;;;;;;9.59;70.32;101283.06;8054112;35;20198;-72
2021/05/28 06:24:00;;;;;;;16.95;10.20;;;;;;;9.36;71.67;101297.91;8067001;35;20453;-72
2021/05/28 06:29:06;;;;;;;20.73;10.32;;;;;;;10.31;73.71;101297.25;8032054;35;20417;-72
2021/05/28 06:34:08;;;;;;;9.70;5.53;;;;;;;10.67;70.64;101301.16;8007836;35;21031;-72
2021/05/28 06:39:11;;;;;;;15.85;9.90;;;;;;;10.27;69.18;101314.56;8015483;35;20562;-72
2021/05/28 06:44:15;;;;;;;14.27;9.10;;;;;;;9.68;69.66;101318.25;8019019;35;22794;-72
2021/05/28 06:49:18;;;;;;;15.88;8.88;;;;;;;9.85;68.92;101319.84;8015362;35;20255;-73
2021/05/28 06:54:20;;;;;;;17.52;8.65;;;;;;;9.51;69.69;101319.25;8017612;35;20686;-72
2021/05/28 06:59:24;;;;;;;12.45;8.77;;;;;;;9.59;70.01;101323.31;8056676;35;20444;-72
2021/05/28 07:04:27;;;;;;;15.05;9.32;;;;;;;10.03;69.47;101316.97;8068582;35;20285;-72
2021/05/28 07:09:29;;;;;;;15.23;8.82;;;;;;;10.27;67.96;101328.84;8070088;35;20152;-72
2021/05/28 07:14:33;;;;;;;12.80;8.88;;;;;;;10.20;66.62;101330.19;8069202;35;20516;-72
2021/05/28 07:19:36;;;;;;;14.63;8.73;;;;;;;10.05;68.01;101331.19;8067273;35;20217;-72
2021/05/28 07:24:38;;;;;;;14.68;8.82;;;;;;;10.90;65.81;101330.03;8046103;35;20227;-72
2021/05/28 07:29:42;;;;;;;12.60;8.05;;;;;;;11.68;62.92;101340.84;8073558;35;21020;-72
2021/05/28 07:34:45;;;;;;;15.20;8.43;;;;;;;10.66;67.23;101326.31;8076546;35;20555;-71
2021/05/28 07:39:48;;;;;;;15.18;8.68;;;;;;;10.66;68.77;101329.84;8077214;35;20742;-71
2021/05/28 07:44:51;;;;;;;14.27;8.80;;;;;;;10.65;66.80;101335.34;8076609;35;20201;-72
2021/05/28 07:49:54;;;;;;;15.45;8.38;;;;;;;10.50;66.90;101331.84;8078335;35;20468;-72
2021/05/28 07:54:56;;;;;;;13.82;9.00;;;;;;;10.71;67.30;101338.47;8082140;35;20190;-73
2021/05/28 08:00:00;;;;;;;14.75;8.23;;;;;;;10.87;64.70;101338.31;8083306;35;20844;-75
2021/05/28 08:05:08;;;;;;;12.65;7.10;;;;;;;10.71;65.92;101335.78;8083099;35;20199;-75
2021/05/28 08:10:11;;;;;;;8.77;6.72;;;;;;;10.69;64.77;101332.34;8061457;35;20997;-73
2021/05/28 08:15:15;;;;;;;12.38;6.80;;;;;;;11.36;63.36;101334.16;8049663;35;20498;-73
2021/05/28 08:20:18;;;;;;;10.48;6.70;;;;;;;12.45;62.60;101329.03;8031534;35;20442;-73
2021/05/28 08:25:21;;;;;;;7.68;5.50;;;;;;;12.59;57.33;101335.16;8035707;35;20521;-73
2021/05/28 08:30:24;;;;;;;10.95;6.18;;;;;;;13.67;60.13;101329.63;8034783;35;20582;-73
2021/05/28 08:35:27;;;;;;;9.95;4.65;;;;;;;13.22;54.94;101341.16;8033008;35;20913;-74
2021/05/28 08:40:32;;;;;;;7.70;5.40;;;;;;;14.38;55.19;101343.69;8031815;35;20426;-72
2021/05/28 08:45:38;;;;;;;12.13;6.10;;;;;;;14.69;53.92;101342.03;8034846;35;20348;-72
2021/05/28 08:50:43;;;;;;;8.05;5.43;;;;;;;14.61;53.76;101339.13;8029451;35;20447;-72
2021/05/28 08:55:46;;;;;;;9.55;5.75;;;;;;;14.52;53.83;101329.06;8025031;35;20544;-73
2021/05/28 09:00:50;;;;;;;9.57;5.85;;;;;;;14.95;52.86;101331.75;8023876;35;20192;-73
2021/05/28 09:05:56;;;;;;;11.25;6.38;;;;;;;15.76;53.01;101323.03;8024425;35;20469;-72
2021/05/28 09:11:05;;;;;;;9.68;6.53;;;;;;;15.69;52.65;101330.84;8022102;35;20777;-73
2021/05/28 09:16:12;;;;;;;9.65;5.93;;;;;;;15.32;52.44;101312.34;8006982;35;20471;-73
2021/05/28 09:21:23;;;;;;;7.13;4.47;;;;;;;16.54;52.26;101318.72;8007623;35;20531;-72
2021/05/28 09:26:27;;;;;;;7.43;4.10;;;;;;;16.09;49.56;101302.88;8037314;35;21330;-72
2021/05/28 09:31:34;;;;;;;6.47;4.63;;;;;;;17.54;47.74;101314.81;8070021;35;20642;-72
2021/05/28 09:36:39;;;;;;;7.93;5.32;;;;;;;16.43;49.32;101314.28;8071735;35;20476;-72
2021/05/28 09:41:47;;;;;;;5.47;4.85;;;;;;;16.10;50.04;101301.91;8044790;35;20191;-72
2021/05/28 09:47:11;;;;;;;7.65;5.13;;;;;;;15.99;49.69;101312.84;8067678;35;20176;-73
2021/05/28 09:52:16;;;;;;;9.55;5.35;;;;;;;16.63;50.54;101317.88;8065591;35;20592;-72
2021/05/28 09:57:32;;;;;;;8.77;6.05;;;;;;;17.07;47.43;101315.59;8052525;35;20457;-72
2021/05/28 10:02:42;;;;;;;10.60;6.85;;;;;;;17.35;46.87;101329.31;8051048;35;20182;-72
2021/05/28 10:07:45;;;;;;;9.65;6.32;;;;;;;16.65;50.13;101321.31;8052259;35;20456;-72
2021/05/28 10:12:48;;;;;;;7.38;4.80;;;;;;;17.75;46.33;101323.63;8053490;35;20582;-72
2021/05/28 10:17:52;;;;;;;7.13;4.43;;;;;;;17.21;45.73;101320.59;8053582;35;20456;-71
2021/05/28 10:22:55;;;;;;;6.68;5.03;;;;;;;18.59;45.73;101300.84;8053577;35;20535;-72
2021/05/28 10:35:11;;;;;;;7.20;4.57;;;;;;;18.18;45.04;101302.25;8067140;35;20436;-72
2021/05/28 10:40:28;;;;;;;6.18;4.50;;;;;;;18.29;45.38;101291.16;8069646;35;20565;-72
2021/05/28 10:45:58;;;;;;;4.97;4.03;;;;;;;19.94;44.55;101303.25;8071764;35;20190;-72
2021/05/28 10:51:03;;;;;;;5.93;4.60;;;;;;;20.70;39.49;101285.06;8066839;35;20258;-72
2021/05/28 10:56:10;;;;;;;3.58;2.72;;;;;;;19.62;43.25;101291.16;8063230;35;20665;-72
2021/05/28 11:01:44;;;;;;;2.35;2.15;;;;;;;19.21;42.99;101290.88;8055565;35;20163;-72
2021/05/28 11:07:16;;;;;;;2.60;2.40;;;;;;;20.55;40.04;101276.69;8057844;35;20537;-71
2021/05/28 11:12:41;;;;;;;3.63;2.60;;;;;;;22.08;36.15;101281.28;8057983;35;20917;-72
2021/05/28 11:17:58;;;;;;;2.88;2.67;;;;;;;19.79;39.55;101285.78;8056961;35;20757;-72
2021/05/28 11:23:08;;;;;;;2.85;2.45;;;;;;;19.58;41.31;101278.00;8057415;35;20221;-72
2021/05/28 11:28:11;;;;;;;3.58;2.20;;;;;;;21.27;38.37;101271.41;8062550;35;20582;-72
2021/05/28 11:33:37;;;;;;;4.80;2.80;;;;;;;20.96;40.26;101266.66;8070026;35;20251;-72
2021/05/28 11:38:44;;;;;;;2.78;2.53;;;;;;;22.44;36.53;101266.22;8048165;35;21965;-72
2021/05/28 11:43:47;;;;;;;6.03;3.33;;;;;;;22.56;36.54;101264.75;8071985;35;20198;-72
2021/05/28 11:48:50;;;;;;;2.90;2.40;;;;;;;23.33;35.67;101269.25;8072191;35;20506;-72
2021/05/28 11:53:53;;;;;;;3.60;2.65;;;;;;;24.50;33.74;101261.97;8075589;35;20367;-73
2021/05/28 11:58:56;;;;;;;4.00;3.28;;;;;;;22.32;37.06;101260.25;8054170;35;20462;-72
2021/05/28 12:03:59;;;;;;;3.83;2.85;;;;;;;21.69;37.28;101259.34;8070559;35;20273;-73
2021/05/28 12:09:04;;;;;;;4.03;3.08;;;;;;;21.32;38.49;101260.81;8064393;35;20457;-72
2021/05/28 12:14:06;;;;;;;4.68;2.85;;;;;;;22.46;35.83;101247.69;8023718;35;20621;-72
2021/05/28 12:19:16;;;;;;;3.22;2.92;;;;;;;22.91;34.48;101240.50;8042623;35;20467;-73
2021/05/28 12:24:20;;;;;;;3.22;2.83;;;;;;;22.77;37.03;101240.28;8050983;35;20984;-73
2021/05/28 12:29:22;;;;;;;5.75;2.90;;;;;;;23.51;34.02;101228.63;8050040;35;20159;-73
2021/05/28 12:34:25;;;;;;;5.07;2.10;;;;;;;25.21;32.46;101219.91;8047313;35;20634;-72
2021/05/28 12:39:29;;;;;;;3.95;2.35;;;;;;;24.68;30.42;101211.19;8051044;35;20477;-73
2021/05/28 12:44:34;;;;;;;4.45;2.45;;;;;;;22.89;34.07;101207.81;8050584;35;20559;-72
2021/05/28 12:49:37;;;;;;;3.42;2.92;;;;;;;22.59;34.27;101203.31;8050317;35;20903;-73
2021/05/28 12:54:40;;;;;;;6.15;2.67;;;;;;;23.41;33.01;101198.72;8050389;35;20570;-74
2021/05/28 12:59:43;;;;;;;5.55;2.60;;;;;;;22.60;34.58;101188.56;8051286;35;21427;-74
2021/05/28 13:04:49;;;;;;;3.20;2.28;;;;;;;24.54;32.52;101183.63;8054727;35;21304;-73
2021/05/28 13:09:53;;;;;;;2.55;2.22;;;;;;;26.08;30.49;101185.41;8052863;35;20512;-73
2021/05/28 13:14:56;;;;;;;4.50;2.55;;;;;;;24.28;31.03;101175.13;8050202;35;20271;-74
2021/05/28 13:20:01;;;;;;;2.47;2.25;;;;;;;25.39;31.11;101178.97;8054194;35;21226;-74
2021/05/28 13:25:18;;;;;;;2.88;1.80;;;;;;;25.64;29.21;101167.47;8050804;35;20458;-74
2021/05/28 13:30:21;;;;;;;3.35;1.75;;;;;;;25.15;31.11;101154.72;8051021;35;20450;-74
2021/05/28 13:35:28;;;;;;;2.00;1.80;;;;;;;21.98;31.88;101162.16;8052980;35;20552;-74
2021/05/28 13:40:32;;;;;;;4.88;2.25;;;;;;;20.56;36.06;101164.59;8051596;35;20191;-73
2021/05/28 13:45:35;;;;;;;4.30;2.00;;;;;;;22.01;35.75;101159.91;8054170;35;20250;-74
2021/05/28 13:50:40;;;;;;;2.50;2.03;;;;;;;22.64;34.66;101159.78;8054329;35;20568;-73
2021/05/28 13:55:45;;;;;;;2.75;2.10;;;;;;;23.88;32.26;101144.50;8053893;35;20473;-73
2021/05/28 14:00:48;;;;;;;3.08;2.40;;;;;;;21.66;35.65;101136.66;8054379;35;20550;-74
2021/05/28 14:05:52;;;;;;;4.35;3.13;;;;;;;21.47;36.62;101154.34;8054041;35;21085;-73
2021/05/28 14:10:56;;;;;;;3.00;2.22;;;;;;;20.87;39.39;101161.19;8054736;35;22104;-73
2021/05/28 14:15:58;;;;;;;3.78;1.95;;;;;;;19.76;44.17;101163.47;8053849;35;20163;-73
2021/05/28 14:21:01;;;;;;;4.72;2.88;;;;;;;18.32;51.34;101168.47;8026852;35;20442;-72
2021/05/28 14:26:05;;;;;;;5.32;2.70;;;;;;;17.22;63.42;101167.56;8001534;35;20529;-73
2021/05/28 14:31:08;;;;;;;4.20;3.28;;;;;;;18.27;66.48;101168.13;7993154;35;20158;-73
2021/05/28 14:36:10;;;;;;;4.50;3.22;;;;;;;20.46;62.30;101155.75;7994271;35;20148;-72
2021/05/28 14:41:14;;;;;;;2.97;2.67;;;;;;;20.59;55.03;101159.84;7972576;35;20474;-74
2021/05/28 14:46:18;;;;;;;3.47;2.30;;;;;;;19.16;53.90;101153.47;7992704;35;20199;-73
2021/05/28 14:51:21;;;;;;;3.75;2.78;;;;;;;19.12;53.80;101152.94;7970085;35;20144;-72
2021/05/28 14:56:25;;;;;;;2.83;1.90;;;;;;;19.28;47.71;101145.84;7992350;35;20508;-72
2021/05/28 15:01:28;;;;;;;2.63;2.13;;;;;;;22.01;41.70;101142.66;7995693;35;20895;-72
2021/05/28 15:06:31;;;;;;;2.08;1.70;;;;;;;23.94;35.92;101135.47;7997788;35;20446;-72
2021/05/28 15:11:34;;;;;;;3.15;2.78;;;;;;;25.03;33.75;101126.97;8004052;35;21829;-73
2021/05/28 15:16:38;;;;;;;3.83;2.47;;;;;;;25.24;33.68;101120.53;8015951;35;20187;-72
2021/05/28 15:21:40;;;;;;;5.43;2.20;;;;;;;25.41;32.70;101121.88;8011939;35;20195;-72
2021/05/28 15:26:45;;;;;;;2.40;2.10;;;;;;;23.75;35.04;101127.84;8002577;35;20472;-73
2021/05/28 15:31:48;;;;;;;3.45;2.05;;;;;;;24.83;33.65;101132.31;8016355;35;20287;-73
2021/05/28 15:36:51;;;;;;;2.85;2.22;;;;;;;23.41;34.75;101130.19;8015247;35;20909;-73
2021/05/28 15:41:55;;;;;;;2.40;2.00;;;;;;;21.57;37.36;101127.66;7971123;35;20541;-70
2021/05/28 15:46:58;;;;;;;2.92;1.90;;;;;;;20.22;41.02;101128.44;7953637;36;20279;-70
2021/05/28 15:52:01;;;;;;;2.10;1.90;;;;;;;19.83;42.41;101124.47;7955628;36;20447;-69
2021/05/28 15:57:06;;;;;;;3.20;2.15;;;;;;;19.50;42.96;101119.91;7953547;36;20545;-70
2021/05/28 16:02:09;;;;;;;3.47;2.22;;;;;;;19.60;41.44;101124.22;7958954;36;20188;-69
2021/05/28 16:07:15;;;;;;;2.10;1.90;;;;;;;19.13;43.02;101113.81;7966292;35;20658;-70
2021/05/28 16:12:18;;;;;;;3.25;2.53;;;;;;;18.71;43.10;101121.88;7968745;35;20171;-70
2021/05/28 16:17:21;;;;;;;2.22;2.00;;;;;;;18.60;43.28;101119.41;7962595;35;20476;-71
2021/05/28 16:22:23;;;;;;;2.47;1.98;;;;;;;18.21;44.72;101120.66;7950995;36;20188;-71
2021/05/28 16:27:27;;;;;;;5.15;2.10;;;;;;;18.10;44.33;101126.28;7940084;36;20152;-70
2021/05/28 16:32:30;;;;;;;3.58;2.35;;;;;;;18.17;44.91;101118.38;7954908;36;20610;-71
2021/05/28 16:37:32;;;;;;;4.07;2.15;;;;;;;17.82;45.16;101114.63;7953780;36;20565;-71
2021/05/28 16:42:37;;;;;;;3.67;2.00;;;;;;;18.20;44.61;101115.34;7953136;36;20426;-71
2021/05/28 16:47:40;;;;;;;2.03;1.77;;;;;;;20.27;40.99;101112.41;7953100;35;20636;-70
2021/05/28 16:52:43;;;;;;;3.40;1.73;;;;;;;21.55;39.65;101110.59;7954875;36;20476;-70
2021/05/28 16:57:48;;;;;;;2.25;2.05;;;;;;;19.97;40.59;101117.50;7952771;36;20479;-70
2021/05/28 17:02:52;;;;;;;3.78;2.03;;;;;;;19.02;44.18;101114.09;7953539;36;20252;-70
2021/05/28 17:07:55;;;;;;;3.30;2.80;;;;;;;18.40;46.12;101121.47;7953356;36;20467;-70
2021/05/28 17:12:59;;;;;;;2.80;2.20;;;;;;;17.61;46.69;101120.34;7953565;36;20674;-70
2021/05/28 17:18:02;;;;;;;2.63;1.80;;;;;;;16.89;46.66;101135.50;7956915;36;20448;-71
2021/05/28 17:23:05;;;;;;;1.80;1.70;;;;;;;16.36;48.62;101151.28;7953148;36;20188;-71
2021/05/28 17:28:09;;;;;;;3.85;1.70;;;;;;;16.29;49.37;101150.19;8002460;35;20585;-70
2021/05/28 17:33:13;;;;;;;3.00;1.90;;;;;;;16.23;50.27;101144.41;8002347;35;20445;-70
2021/05/28 17:38:16;;;;;;;3.97;2.30;;;;;;;15.91;50.14;101157.25;8000739;35;20509;-72
2021/05/28 17:43:20;;;;;;;2.78;1.80;;;;;;;15.72;51.34;101165.34;8003182;35;20183;-71
2021/05/28 17:48:22;;;;;;;2.67;1.85;;;;;;;15.75;52.55;101170.47;8001039;35;20689;-70
2021/05/28 17:53:25;;;;;;;3.38;2.30;;;;;;;15.57;52.75;101167.56;8000899;35;20553;-72
2021/05/28 17:58:29;;;;;;;3.13;1.97;;;;;;;15.37;53.28;101166.66;8000312;35;20508;-71
2021/05/28 18:03:31;;;;;;;2.25;2.05;;;;;;;15.20;53.91;101176.25;7980152;35;20251;-71
2021/05/28 18:08:34;;;;;;;1.80;1.70;;;;;;;14.91;54.56;101181.47;8000811;35;20547;-71
2021/05/28 18:13:38;;;;;;;2.60;2.00;;;;;;;14.88;55.46;101186.31;8001195;35;20436;-71
2021/05/28 18:18:40;;;;;;;3.33;2.20;;;;;;;14.85;55.51;101192.84;8001426;35;20185;-71
2021/05/28 18:23:43;;;;;;;2.83;2.10;;;;;;;14.66;56.97;101200.84;8001488;35;20511;-71
2021/05/28 18:28:46;;;;;;;4.97;2.20;;;;;;;14.45;58.73;101196.25;8001779;35;20201;-71
2021/05/28 18:33:49;;;;;;;3.50;2.47;;;;;;;14.27;62.48;101206.75;7999398;35;21125;-71
2021/05/28 18:38:52;;;;;;;3.15;2.40;;;;;;;14.00;67.06;101204.50;7997594;35;20195;-72
2021/05/28 18:43:55;;;;;;;3.25;2.22;;;;;;;13.61;70.78;101203.22;7998088;35;20148;-71
2021/05/28 18:48:57;;;;;;;5.03;3.38;;;;;;;13.31;73.08;101204.66;7998174;35;20194;-71
2021/05/28 18:54:00;;;;;;;3.20;2.60;;;;;;;13.21;73.70;101207.22;7997654;35;20602;-71
2021/05/28 18:59:04;;;;;;;3.22;2.67;;;;;;;13.28;74.84;101215.72;7998528;35;20458;-71
2021/05/28 19:04:06;;;;;;;4.00;2.33;;;;;;;13.28;74.40;101208.47;7997904;35;20294;-71
2021/05/28 19:09:09;;;;;;;3.33;2.42;;;;;;;13.31;74.83;101215.47;8002191;35;20765;-71
2021/05/28 19:14:12;;;;;;;2.85;2.55;;;;;;;13.36;74.42;101210.56;8006073;35;20465;-70
2021/05/28 19:19:15;;;;;;;3.25;2.83;;;;;;;13.32;74.67;101219.88;8016869;35;20205;-71
2021/05/28 19:24:18;;;;;;;3.70;3.13;;;;;;;13.04;73.28;101224.75;8031846;35;20511;-70
2021/05/28 19:29:21;;;;;;;3.30;2.78;;;;;;;12.85;70.35;101229.84;8007571;35;20425;-71
2021/05/28 19:34:24;;;;;;;3.22;2.60;;;;;;;12.62;72.91;101233.47;8007849;35;20445;-71
2021/05/28 19:39:27;;;;;;;2.60;2.40;;;;;;;12.34;72.70;101232.84;8007872;35;20524;-71
2021/05/28 19:44:30;;;;;;;3.55;3.00;;;;;;;12.27;72.02;101226.19;8006169;35;20230;-70
2021/05/28 19:49:34;;;;;;;3.50;2.90;;;;;;;12.29;73.53;101222.44;8006799;35;21153;-71
2021/05/28 19:59:59;;;;;;;4.07;3.67;;;;;;;12.28;73.39;101225.19;8001673;35;20294;-71
2021/05/28 20:05:01;;;;;;;4.57;3.22;;;;;;;12.22;72.89;101228.34;8002821;35;20256;-72
2021/05/28 20:10:08;;;;;;;3.97;3.38;;;;;;;11.98;72.34;101225.63;8003011;35;20564;-72
2021/05/28 20:15:13;;;;;;;6.05;4.72;;;;;;;11.85;72.27;101231.09;8000968;35;20484;-72
2021/05/28 20:20:16;;;;;;;7.22;5.22;;;;;;;11.67;72.27;101227.88;7999755;35;20199;-72
2021/05/28 20:25:19;;;;;;;7.03;5.80;;;;;;;11.63;72.95;101238.03;8005522;35;20172;-72
2021/05/28 20:30:23;;;;;;;8.60;6.40;;;;;;;11.70;72.08;101236.59;8016527;35;20171;-71
2021/05/28 20:35:25;;;;;;;8.38;6.43;;;;;;;11.47;72.51;101234.72;8051884;35;20166;-72
2021/05/28 20:40:28;;;;;;;7.20;5.25;;;;;;;11.31;72.64;101242.16;8051223;35;20170;-72
2021/05/28 20:45:32;;;;;;;8.77;6.72;;;;;;;11.31;72.93;101242.16;8048709;35;20481;-72
2021/05/28 20:50:55;;;;;;;9.63;6.47;;;;;;;11.30;72.94;101251.16;8051156;35;21779;-72
2021/05/28 20:56:00;;;;;;;8.30;6.35;;;;;;;11.39;72.87;101245.16;8053997;35;20205;-72
2021/05/28 21:01:03;;;;;;;9.00;7.13;;;;;;;11.51;72.90;101246.97;8055551;35;20677;-71
2021/05/28 21:06:07;;;;;;;9.10;5.82;;;;;;;11.62;72.25;101238.13;8054482;35;20752;-72
2021/05/28 21:11:12;;;;;;;6.50;5.22;;;;;;;11.70;72.02;101241.97;8058268;35;20195;-71
2021/05/28 21:16:16;;;;;;;5.80;4.65;;;;;;;11.63;71.22;101246.09;8058393;35;20436;-71
2021/05/28 21:21:19;;;;;;;5.75;4.90;;;;;;;11.58;71.13;101252.78;8054853;35;20536;-71
2021/05/28 21:26:21;;;;;;;5.72;4.15;;;;;;;11.57;71.21;101256.44;8058388;35;20242;-72
2021/05/28 21:31:25;;;;;;;7.82;5.05;;;;;;;11.58;71.29;101266.25;8069881;35;20489;-71
2021/05/28 21:36:27;;;;;;;5.60;5.00;;;;;;;11.58;71.25;101266.25;8070678;35;20194;-71
2021/05/28 21:41:30;;;;;;;8.82;5.15;;;;;;;11.54;71.25;101265.56;8073030;35;20260;-71
2021/05/28 21:46:36;;;;;;;8.15;5.82;;;;;;;11.50;71.32;101278.38;8069171;35;21255;-72
2021/05/28 21:51:38;;;;;;;6.95;6.00;;;;;;;11.43;71.65;101276.25;8040814;35;20287;-72
2021/05/28 21:56:41;;;;;;;10.05;6.88;;;;;;;11.45;71.33;101290.44;8013781;35;21008;-72
2021/05/28 22:01:45;;;;;;;8.68;6.55;;;;;;;11.50;71.72;101291.00;8023598;35;20458;-71
2021/05/28 22:06:48;;;;;;;8.55;6.90;;;;;;;11.57;72.09;101292.25;8045165;35;21784;-71
2021/05/28 22:11:51;;;;;;;9.13;6.80;;;;;;;11.58;72.11;101291.31;8049043;35;21207;-72
2021/05/28 22:16:55;;;;;;;9.85;6.65;;;;;;;11.60;71.77;101292.06;8040153;35;20168;-71
2021/05/28 22:21:58;;;;;;;9.15;6.55;;;;;;;11.50;72.17;101280.22;8042955;35;20507;-72
2021/05/28 22:27:02;;;;;;;8.95;6.55;;;;;;;11.41;72.35;101280.84;8059839;35;21779;-71
2021/05/28 22:37:28;;;;;;;9.32;6.22;;;;;;;11.20;72.17;101281.41;8065688;35;20524;-71
2021/05/28 22:42:31;;;;;;;8.70;7.22;;;;;;;10.95;73.34;101282.22;8068166;35;20504;-72
2021/05/28 22:47:34;;;;;;;9.60;6.65;;;;;;;10.99;73.34;101289.09;8070203;35;20155;-72
2021/05/28 22:52:37;;;;;;;8.13;6.70;;;;;;;11.10;73.39;101288.34;8069222;35;20437;-71
2021/05/28 22:57:40;;;;;;;11.10;6.70;;;;;;;11.12;73.33;101285.56;8066794;35;21136;-71
2021/05/28 23:02:44;;;;;;;9.55;6.82;;;;;;;11.18;72.81;101286.03;8062870;35;20633;-72
2021/05/28 23:07:46;;;;;;;9.75;6.40;;;;;;;11.11;72.59;101282.03;8055949;35;20160;-72
2021/05/28 23:12:49;;;;;;;10.85;6.35;;;;;;;11.02;72.56;101283.50;8057419;35;21186;-71
2021/05/28 23:17:53;;;;;;;8.27;6.38;;;;;;;10.86;72.16;101276.59;8054146;35;20494;-72
2021/05/28 23:22:55;;;;;;;11.38;6.68;;;;;;;10.81;72.41;101276.94;8055971;35;20594;-72
2021/05/28 23:27:59;;;;;;;9.48;6.60;;;;;;;10.62;72.65;101285.38;8065521;35;21150;-72
2021/05/28 23:33:03;;;;;;;9.50;6.47;;;;;;;10.42;73.06;101283.13;8069984;35;20613;-72
2021/05/28 23:38:05;;;;;;;9.27;6.68;;;;;;;10.28;73.72;101284.03;8068686;35;21537;-72
2021/05/28 23:43:12;;;;;;;9.68;7.82;;;;;;;10.36;73.63;101276.34;8068971;35;20645;-71
2021/05/28 23:53:21;;;;;;;8.38;7.35;;;;;;;10.35;72.75;101272.78;8799517;32;20274;-72
2021/05/28 23:58:26;;;;;;;9.27;7.13;;;;;;;10.24;72.74;101283.38;8738172;33;20143;-72
